Pasadena 2N

39° 08' 31"N, 76° 30' 27"W, Elevation 43 ft.
Eastern Time

Hourly observations for the last 72 hours

Date Time Temperature (°F) Humi-
dity

(%)
Wind
(mph)
Pressure Rain (in) Sun
(W/m2)
ET
(in)
Air Dew 6 Hour 1 Hr 3 Hr 6 Hr Day
Alt
(in)
Sea
Level

(mb)
Max Min
28 16:00 52.3 40.5 64 W 4 G 10 29.90 1012.6 0.01 28 0.022
28 15:00 52.8 40.6 63 W 5 G 13 29.86 1011.1 0.01 33 0.020
28 14:00 53.7 40.6 61 W 6 G 17 29.82 1010.0 0.01 81 0.015
28 13:00 52.9 42.2 53.9 50.1 67 W 3 G 8 29.82 1009.8 0.01 128 0.012
28 12:00 52.1 41.5 67 WNW 3 G 14 29.81 1009.6 0.01 114 0.008
28 11:00 50.9 42.6 73 W 4 G 12 29.81 1009.5 0.01 74 0.005
28 10:00 51.2 43.9 76 WNW 4 G 16 29.80 1009.0 0.01 44 0.003
28 09:00 52.9 45.5 76 WNW 5 G 19 29.74 1007.0 0.01 26 0.001
28 08:00 52.8 48.7 86 WSW 2 G 12 29.67 1004.9 0.01 16 0.000
28 07:00 50.1 47.3 50.6 49.0 90 W 3 G 8 29.63 1003.6 0.01 0.01 0 0.000
28 06:00 50.0 48.6 95 W 3 G 6 29.60 1002.6 0.01 0 0.000
28 05:00 50.3 49.5 97 WNW 2 G 7 29.59 1002.0 0.01 0 0.000
28 04:00 49.8 49.0 97 W 2 G 4 29.56 1001.1 0.01 0.01 0 0.000
28 03:00 49.5 48.7 97 WSW 0 G 3 29.56 1000.9 0.01 0.01 0 0.000
28 02:00 50.4 49.3 96 W 1 G 4 29.54 1000.3 0.00 0 0.000
28 01:00 50.5 49.4 58.8 47.4 96 SW 2 G 3 29.53 1000.2 0.00 0 0.000
28 00:00 48.0 46.9 96 WSW 2 G 5 29.53 1000.0 0.30 0 0.008
27 23:00 50.2 48.8 95 W 0 G 1 29.51 999.5 0.30 0 0.008
27 22:00 53.4 52.0 95 W 1 G 7 29.50 998.9 0.30 0 0.008
27 21:00 55.1 53.4 94 W 4 G 11 29.49 998.6 0.30 0 0.008
27 20:00 56.5 54.8 94 WSW 3 G 10 29.47 997.9 0.30 0 0.008
27 19:00 58.8 57.4 59.3 48.8 95 W 6 G 16 29.45 997.3 0.06 0.30 0 0.008
27 18:00 56.8 55.7 96 S 2 G 8 29.41 995.9 0.30 0 0.008
27 17:00 56.9 55.8 96 SSE 6 G 14 29.41 996.0 0.30 0 0.008
27 16:00 57.6 56.8 97 SSE 10 G 19 29.45 997.2 0.02 0.06 0.30 7 0.008
27 15:00 53.9 52.5 95 S 0 G 2 29.49 998.6 0.28 33 0.007
27 14:00 52.7 51.3 95 S 3 G 14 29.51 999.4 0.04 0.28 26 0.006
27 13:00 48.8 46.9 51.9 42.1 93 SSE 3 G 7 29.62 1003.2 0.17 0.24 0.24 0.24 16 0.005
27 12:00 49.2 46.4 90 SE 3 G 6 29.69 1005.5 0.06 0.07 19 0.004
27 11:00 51.4 45.8 81 SE 4 G 9 29.75 1007.6 0.01 0.01 32 0.003
27 10:00 51.0 44.7 79 S 3 G 9 29.80 1009.2 0.00 19 0.002
27 09:00 48.7 43.1 81 SE 2 G 8 29.81 1009.4 0.00 33 0.001
27 08:00 43.5 39.9 87 Calm 29.84 1010.7 0.00 12 0.001
27 07:00 42.1 38.5 42.2 38.6 87 Calm 29.87 1011.4 0.00 0 0.001
27 06:00 41.6 37.7 86 Calm 29.88 1011.9 0.00 0 0.001
27 05:00 41.4 37.2 85 Calm 29.90 1012.5 0.00 0 0.001
27 04:00 41.6 37.4 85 SSE 1 G 2 29.90 1012.6 0.00 0 0.001
27 03:00 41.0 36.5 84 SSE 1 G 5 29.93 1013.7 0.00 0 0.001
27 02:00 38.9 33.9 82 Calm 29.95 1014.4 0.00 0 0.001
27 01:00 40.3 34.3 41.6 38.5 79 Calm 29.97 1015.0 0.00 0 0.000
27 00:00 40.8 34.8 79 SSE 1 G 4 29.98 1015.4 0.00 0 0.040
26 23:00 38.7 33.4 81 SSE 1 G 4 30.00 1016.0 0.00 0 0.039
26 22:00 39.1 32.8 78 SSW 1 G 3 30.02 1016.7 0.00 0 0.039
26 21:00 39.2 32.9 78 SSW 1 G 3 30.04 1017.4 0.00 0 0.038
26 20:00 40.2 32.6 74 SSW 1 G 2 30.05 1017.5 0.00 0 0.037
26 19:00 41.6 33.2 59.4 41.6 72 WSW 1 G 3 30.06 1018.0 0.00 0 0.036
26 18:00 45.4 33.5 63 WSW 1 G 2 30.05 1017.5 0.00 0 0.035
26 17:00 50.8 34.8 54 WSW 0 G 2 30.06 1017.8 0.00 0 0.034
26 16:00 57.0 35.9 45 W 3 G 8 30.05 1017.6 0.00 12 0.032
26 15:00 57.7 35.4 43 WNW 3 G 8 30.05 1017.7 0.00 19 0.029
26 14:00 59.1 36.6 43 W 2 G 11 30.06 1017.8 0.00 269 0.020
26 13:00 58.0 37.3 58.0 32.1 46 W 4 G 10 30.07 1018.3 0.00 454 0.009
26 12:00 55.5 37.7 51 WNW 3 G 13 30.09 1019.2 0.00 466 0.005
26 11:00 51.8 37.5 58 WNW 1 G 8 30.13 1020.2 0.00 30 0.004
26 10:00 48.5 37.3 65 SW 1 G 10 30.14 1020.8 0.00 26 0.003
26 09:00 42.6 35.6 76 W 2 G 7 30.14 1020.6 0.00 23 0.003
26 08:00 34.1 30.6 87 W 1 G 3 30.14 1020.8 0.00 18 0.003
26 07:00 32.2 28.8 39.1 32.1 87 W 2 G 3 30.12 1020.1 0.00 0 0.003
26 06:00 33.0 29.3 86 W 0 G 4 30.10 1019.4 0.00 0 0.003
26 05:00 34.4 29.8 83 Calm 30.10 1019.2 0.00 0 0.003
26 04:00 35.7 30.4 81 W 0 G 2 30.10 1019.3 0.00 0 0.003
26 03:00 37.7 31.8 79 W 0 G 2 30.09 1019.0 0.00 0 0.002
26 02:00 37.3 31.7 80 W 2 G 4 30.07 1018.3 0.00 0 0.001
26 01:00 39.1 32.8 50.3 38.7 78 W 1 G 7 30.06 1017.9 0.00 0 0.000
26 00:00 40.0 33.4 77 W 2 G 4 30.05 1017.6 0.12 0 0.036
25 23:00 39.3 33.0 78 WNW 0 G 7 30.04 1017.2 0.12 0 0.035
25 22:00 43.2 34.4 71 NW 1 G 2 30.02 1016.6 0.12 0 0.034
25 21:00 48.2 36.2 63 W 2 G 10 30.00 1015.9 0.12 0 0.032
25 20:00 48.5 36.5 63 W 4 G 10 29.97 1015.0 0.12 0 0.031
25 19:00 50.3 37.8 59.7 50.3 62 W 2 G 8 29.93 1013.7 0.12 0 0.029
25 18:00 51.8 38.4 60 W 4 G 13 29.92 1013.3 0.12 0 0.027
25 17:00 54.7 40.2 58 WNW 3 G 14 29.91 1012.8 0.12 0 0.025

Data generated by WxSolution Version 1.9.1.8, Build 2020.02.16.